Time,TemperatureF,DewpointF,PressureIn,WindDirection,WindDirectionDegrees,WindSpeedMPH,WindSpeedGustMPH,Humidity,HourlyPrecipIn,Conditions,Clouds,dailyrainin,SolarRadiationWatts/m^2,SoftwareType,DateUTC
2013-06-19 00:01:00,53.0,36.0,-100.00,WNW,283,43.0,61.0,53,0.00,,,0.00,0.000000,,2013-06-19 07:01:00,
2013-06-19 00:11:00,53.0,36.0,-100.00,WNW,283,43.0,61.0,53,0.00,,,0.00,0.000000,,2013-06-19 07:11:00,
2013-06-19 00:22:00,53.0,36.0,-100.00,WNW,283,43.0,61.0,53,0.00,,,0.00,0.000000,,2013-06-19 07:22:00,
2013-06-19 00:53:00,52.0,39.0,-100.00,WNW,284,42.0,68.0,60,0.00,,,0.00,0.000000,,2013-06-19 07:53:00,
2013-06-19 01:02:00,52.0,39.0,-100.00,WNW,284,42.0,68.0,60,0.00,,,0.00,0.000000,,2013-06-19 08:02:00,
2013-06-19 01:11:00,52.0,39.0,-100.00,WNW,284,42.0,68.0,60,0.00,,,0.00,0.000000,,2013-06-19 08:11:00,
2013-06-19 01:22:00,52.0,39.0,-100.00,WNW,284,42.0,68.0,60,0.00,,,0.00,0.000000,,2013-06-19 08:22:00,
2013-06-19 01:53:00,50.0,35.0,-100.00,West,281,47.0,65.0,56,0.00,,,0.00,0.000000,,2013-06-19 08:53:00,
2013-06-19 02:02:00,50.0,35.0,-100.00,West,281,47.0,65.0,56,0.00,,,0.00,0.000000,,2013-06-19 09:02:00,
2013-06-19 02:11:00,50.0,35.0,-100.00,West,281,47.0,65.0,56,0.00,,,0.00,0.000000,,2013-06-19 09:11:00,
2013-06-19 02:22:00,50.0,35.0,-100.00,West,281,47.0,65.0,56,0.00,,,0.00,0.000000,,2013-06-19 09:22:00,
2013-06-19 02:53:00,50.0,32.0,-100.00,West,280,47.0,70.0,49,0.00,,,0.00,0.000000,,2013-06-19 09:53:00,
2013-06-19 03:01:00,50.0,32.0,-100.00,West,280,47.0,70.0,49,0.00,,,0.00,0.000000,,2013-06-19 10:01:00,
2013-06-19 03:11:00,50.0,32.0,-100.00,West,280,47.0,70.0,49,0.00,,,0.00,0.000000,,2013-06-19 10:11:00,
2013-06-19 03:22:00,50.0,32.0,-100.00,West,280,47.0,70.0,49,0.00,,,0.00,0.000000,,2013-06-19 10:22:00,
2013-06-19 03:53:00,49.0,30.0,-100.00,West,280,50.0,82.0,48,0.00,,,0.00,0.000000,,2013-06-19 10:53:00,
2013-06-19 04:02:00,49.0,30.0,-100.00,West,280,50.0,82.0,48,0.00,,,0.00,0.000000,,2013-06-19 11:02:00,
2013-06-19 04:11:00,49.0,30.0,-100.00,West,280,50.0,82.0,48,0.00,,,0.00,0.000000,,2013-06-19 11:11:00,
2013-06-19 04:22:00,49.0,30.0,-100.00,West,280,50.0,82.0,48,0.00,,,0.00,0.000000,,2013-06-19 11:22:00,
2013-06-19 04:54:00,50.0,32.0,-100.00,WNW,282,47.0,67.0,50,0.00,,,0.00,0.000000,,2013-06-19 11:54:00,
2013-06-19 05:01:00,50.0,32.0,-100.00,WNW,282,47.0,67.0,50,0.00,,,0.00,0.000000,,2013-06-19 12:01:00,
2013-06-19 05:11:00,50.0,32.0,-100.00,WNW,282,47.0,67.0,50,0.00,,,0.00,0.000000,,2013-06-19 12:11:00,
2013-06-19 05:22:00,50.0,32.0,-100.00,WNW,282,47.0,67.0,50,0.00,,,0.00,0.000000,,2013-06-19 12:22:00,
2013-06-19 05:53:00,49.0,33.0,-100.00,WNW,285,42.0,72.0,54,0.00,,,0.00,0.000000,,2013-06-19 12:53:00,
2013-06-19 06:02:00,49.0,33.0,-100.00,WNW,285,42.0,72.0,54,0.00,,,0.00,0.000000,,2013-06-19 13:02:00,
2013-06-19 06:11:00,49.0,33.0,-100.00,WNW,285,42.0,72.0,54,0.00,,,0.00,0.000000,,2013-06-19 13:11:00,
2013-06-19 06:22:00,49.0,33.0,-100.00,WNW,285,42.0,72.0,54,0.00,,,0.00,0.000000,,2013-06-19 13:22:00,
2013-06-19 06:54:00,48.0,33.0,-100.00,West,276,18.0,68.0,56,-99.99,,,0.00,0.000000,,2013-06-19 13:54:00,
2013-06-19 07:02:00,48.0,33.0,-100.00,West,276,18.0,68.0,56,-99.99,,,0.00,0.000000,,2013-06-19 14:02:00,
2013-06-19 07:11:00,48.0,33.0,-100.00,West,276,18.0,68.0,56,-99.99,,,0.00,0.000000,,2013-06-19 14:11:00,
2013-06-19 07:22:00,48.0,33.0,-100.00,West,276,18.0,68.0,56,-99.99,,,0.00,0.000000,,2013-06-19 14:22:00,
2013-06-19 07:53:00,45.0,29.0,-100.00,West,263,18.0,69.0,54,0.00,,,0.00,51.000000,,2013-06-19 14:53:00,
2013-06-19 08:01:00,45.0,29.0,-100.00,West,263,18.0,69.0,54,0.00,,,0.00,51.000000,,2013-06-19 15:01:00,
2013-06-19 08:11:00,45.0,29.0,-100.00,West,263,18.0,69.0,54,0.00,,,0.00,51.000000,,2013-06-19 15:11:00,
2013-06-19 08:22:00,45.0,29.0,-100.00,West,263,18.0,69.0,54,0.00,,,0.00,51.000000,,2013-06-19 15:22:00,
2013-06-19 08:53:00,47.0,28.0,-100.00,NNW,329,17.0,40.0,47,0.00,,,0.00,291.000000,,2013-06-19 15:53:00,
2013-06-19 09:01:00,47.0,28.0,-100.00,NNW,329,17.0,40.0,47,0.00,,,0.00,291.000000,,2013-06-19 16:01:00,
2013-06-19 09:11:00,47.0,28.0,-100.00,NNW,329,17.0,40.0,47,0.00,,,0.00,291.000000,,2013-06-19 16:11:00,
2013-06-19 09:22:00,47.0,28.0,-100.00,NNW,329,17.0,40.0,47,0.00,,,0.00,291.000000,,2013-06-19 16:22:00,
2013-06-19 09:53:00,48.0,26.0,-100.00,NW,319,18.0,42.0,42,0.00,,,0.00,557.000000,,2013-06-19 16:53:00,
2013-06-19 10:02:00,48.0,26.0,-100.00,NW,319,18.0,42.0,42,0.00,,,0.00,557.000000,,2013-06-19 17:02:00,
2013-06-19 10:11:00,48.0,26.0,-100.00,NW,319,18.0,42.0,42,0.00,,,0.00,557.000000,,2013-06-19 17:11:00,
2013-06-19 10:22:00,48.0,26.0,-100.00,NW,319,18.0,42.0,42,0.00,,,0.00,557.000000,,2013-06-19 17:22:00,
2013-06-19 10:53:00,50.0,23.0,-100.00,NNW,331,18.0,27.0,34,0.00,,,0.00,812.000000,,2013-06-19 17:53:00,
2013-06-19 11:01:00,50.0,23.0,-100.00,NNW,331,18.0,27.0,34,0.00,,,0.00,812.000000,,2013-06-19 18:01:00,
2013-06-19 11:11:00,50.0,23.0,-100.00,NNW,331,18.0,27.0,34,0.00,,,0.00,812.000000,,2013-06-19 18:11:00,
2013-06-19 11:23:00,50.0,23.0,-100.00,NNW,331,18.0,27.0,34,0.00,,,0.00,812.000000,,2013-06-19 18:23:00,
2013-06-19 11:53:00,54.0,20.0,-100.00,NW,323,20.0,26.0,26,0.00,,,0.00,1033.000000,,2013-06-19 18:53:00,
2013-06-19 12:01:00,54.0,20.0,-100.00,NW,323,20.0,26.0,26,0.00,,,0.00,1033.000000,,2013-06-19 19:01:00,
2013-06-19 12:11:00,54.0,20.0,-100.00,NW,323,20.0,26.0,26,0.00,,,0.00,1033.000000,,2013-06-19 19:11:00,
2013-06-19 12:22:00,54.0,20.0,-100.00,NW,323,20.0,26.0,26,0.00,,,0.00,1033.000000,,2013-06-19 19:22:00,
2013-06-19 12:53:00,58.0,16.0,-100.00,NW,323,18.0,33.0,19,0.00,,,0.00,1201.000000,,2013-06-19 19:53:00,
2013-06-19 13:02:00,58.0,16.0,-100.00,NW,323,18.0,33.0,19,0.00,,,0.00,1201.000000,,2013-06-19 20:02:00,
2013-06-19 13:11:00,58.0,16.0,-100.00,NW,323,18.0,33.0,19,0.00,,,0.00,1201.000000,,2013-06-19 20:11:00,
2013-06-19 13:22:00,58.0,16.0,-100.00,NW,323,18.0,33.0,19,0.00,,,0.00,1201.000000,,2013-06-19 20:22:00,
2013-06-19 13:52:00,64.0,23.0,-100.00,NW,322,17.0,29.0,21,0.00,,,0.00,1298.000000,,2013-06-19 20:52:00,
2013-06-19 14:02:00,64.0,23.0,-100.00,NW,322,17.0,29.0,21,0.00,,,0.00,1298.000000,,2013-06-19 21:02:00,
2013-06-19 14:11:00,64.0,23.0,-100.00,NW,322,17.0,29.0,21,0.00,,,0.00,1298.000000,,2013-06-19 21:11:00,
2013-06-19 14:22:00,64.0,23.0,-100.00,NW,322,17.0,29.0,21,0.00,,,0.00,1298.000000,,2013-06-19 21:22:00,
2013-06-19 14:52:00,65.0,25.0,-100.00,NW,326,21.0,27.0,22,0.00,,,0.00,1323.000000,,2013-06-19 21:52:00,
2013-06-19 15:01:00,65.0,25.0,-100.00,NW,326,21.0,27.0,22,0.00,,,0.00,1323.000000,,2013-06-19 22:01:00,
2013-06-19 15:11:00,65.0,25.0,-100.00,NW,326,21.0,27.0,22,0.00,,,0.00,1323.000000,,2013-06-19 22:11:00,
2013-06-19 15:22:00,65.0,25.0,-100.00,NW,326,21.0,27.0,22,0.00,,,0.00,1323.000000,,2013-06-19 22:22:00,
2013-06-19 15:53:00,65.0,24.0,-100.00,NW,313,18.0,29.0,21,0.00,,,0.00,1288.000000,,2013-06-19 22:53:00,
2013-06-19 16:02:00,65.0,24.0,-100.00,NW,313,18.0,29.0,21,0.00,,,0.00,1288.000000,,2013-06-19 23:02:00,
2013-06-19 16:12:00,65.0,24.0,-100.00,NW,313,18.0,29.0,21,0.00,,,0.00,1288.000000,,2013-06-19 23:12:00,
2013-06-19 16:22:00,65.0,24.0,-100.00,NW,313,18.0,29.0,21,0.00,,,0.00,1288.000000,,2013-06-19 23:22:00,
2013-06-19 16:52:00,65.0,26.0,-100.00,NW,307,16.0,36.0,23,0.00,,,0.00,1183.000000,,2013-06-19 23:52:00,
2013-06-19 17:01:00,65.0,26.0,-100.00,NW,307,16.0,36.0,23,0.00,,,0.00,1183.000000,,2013-06-20 00:01:00,
2013-06-19 17:11:00,65.0,26.0,-100.00,NW,307,16.0,36.0,23,0.00,,,0.00,1183.000000,,2013-06-20 00:11:00,
2013-06-19 17:22:00,65.0,26.0,-100.00,NW,307,16.0,36.0,23,0.00,,,0.00,1183.000000,,2013-06-20 00:22:00,
2013-06-19 17:52:00,64.0,26.0,-100.00,NW,305,21.0,30.0,24,0.00,,,0.00,1006.000000,,2013-06-20 00:52:00,
2013-06-19 18:02:00,64.0,26.0,-100.00,NW,305,21.0,30.0,24,0.00,,,0.00,1006.000000,,2013-06-20 01:02:00,
2013-06-19 18:11:00,64.0,26.0,-100.00,NW,305,21.0,30.0,24,0.00,,,0.00,1006.000000,,2013-06-20 01:11:00,
2013-06-19 18:22:00,64.0,26.0,-100.00,NW,305,21.0,30.0,24,0.00,,,0.00,1006.000000,,2013-06-20 01:22:00,
2013-06-19 18:52:00,64.0,22.0,-100.00,West,281,26.0,34.0,20,0.00,,,0.00,775.000000,,2013-06-20 01:52:00,
2013-06-19 19:02:00,64.0,22.0,-100.00,West,281,26.0,34.0,20,0.00,,,0.00,775.000000,,2013-06-20 02:02:00,
2013-06-19 19:11:00,64.0,22.0,-100.00,West,281,26.0,34.0,20,0.00,,,0.00,775.000000,,2013-06-20 02:11:00,
2013-06-19 19:24:00,64.0,22.0,-100.00,West,281,26.0,34.0,20,0.00,,,0.00,775.000000,,2013-06-20 02:24:00,
2013-06-19 19:52:00,61.0,27.0,-100.00,WNW,283,31.0,39.0,27,0.00,,,0.00,322.000000,,2013-06-20 02:52:00,
2013-06-19 20:02:00,61.0,27.0,-100.00,WNW,283,31.0,39.0,27,0.00,,,0.00,322.000000,,2013-06-20 03:02:00,
2013-06-19 20:11:00,61.0,27.0,-100.00,WNW,283,31.0,39.0,27,0.00,,,0.00,322.000000,,2013-06-20 03:11:00,
2013-06-19 20:22:00,61.0,27.0,-100.00,WNW,283,31.0,39.0,27,0.00,,,0.00,322.000000,,2013-06-20 03:22:00,
2013-06-19 20:54:00,57.0,32.0,-100.00,WNW,289,28.0,42.0,38,-99.99,,,0.00,85.000000,,2013-06-20 03:54:00,
2013-06-19 21:01:00,57.0,32.0,-100.00,WNW,289,28.0,42.0,38,-99.99,,,0.00,85.000000,,2013-06-20 04:01:00,
2013-06-19 21:11:00,57.0,32.0,-100.00,WNW,289,28.0,42.0,38,-99.99,,,0.00,85.000000,,2013-06-20 04:11:00,
2013-06-19 21:22:00,57.0,32.0,-100.00,WNW,289,28.0,42.0,38,-99.99,,,0.00,85.000000,,2013-06-20 04:22:00,
2013-06-19 21:54:00,54.0,35.0,-100.00,WNW,287,28.0,44.0,49,-99.99,,,0.00,37.000000,,2013-06-20 04:54:00,
2013-06-19 22:01:00,54.0,35.0,-100.00,WNW,287,28.0,44.0,49,-99.99,,,0.00,37.000000,,2013-06-20 05:01:00,
2013-06-19 22:12:00,54.0,35.0,-100.00,WNW,287,28.0,44.0,49,-99.99,,,0.00,37.000000,,2013-06-20 05:12:00,
2013-06-19 22:22:00,54.0,35.0,-100.00,WNW,287,28.0,44.0,49,-99.99,,,0.00,37.000000,,2013-06-20 05:22:00,
2013-06-19 22:53:00,51.0,33.0,-100.00,WNW,284,24.0,47.0,50,0.00,,,0.00,0.000000,,2013-06-20 05:53:00,
2013-06-19 23:01:00,51.0,33.0,-100.00,WNW,284,24.0,47.0,50,0.00,,,0.00,0.000000,,2013-06-20 06:01:00,
2013-06-19 23:11:00,51.0,33.0,-100.00,WNW,284,24.0,47.0,50,0.00,,,0.00,0.000000,,2013-06-20 06:11:00,
2013-06-19 23:22:00,51.0,33.0,-100.00,WNW,284,24.0,47.0,50,0.00,,,0.00,0.000000,,2013-06-20 06:22:00,
2013-06-19 23:53:00,50.0,32.0,-100.00,NNW,332,18.0,42.0,49,0.00,,,0.00,0.000000,,2013-06-20 06:53:00,